createdAt,value
2023-02-11T00:01:10.114Z,4.53
2023-02-11T00:03:38.716Z,4.93
2023-02-11T00:06:09.333Z,4.72
2023-02-11T00:08:36.433Z,4.47
2023-02-11T00:11:03.385Z,4.70
2023-02-11T00:13:30.525Z,4.30
2023-02-11T00:15:57.412Z,4.57
2023-02-11T00:18:24.408Z,4.53
2023-02-11T00:20:51.238Z,4.55
2023-02-11T00:23:18.047Z,4.18
2023-02-11T00:25:45.634Z,4.28
2023-02-11T00:28:12.922Z,4.20
2023-02-11T00:30:40.202Z,4.18
2023-02-11T00:33:07.333Z,3.95
2023-02-11T00:35:36.400Z,4.10
2023-02-11T00:38:03.171Z,4.07
2023-02-11T00:40:30.025Z,4.53
2023-02-11T00:42:56.828Z,4.13
2023-02-11T00:45:23.700Z,4.10
2023-02-11T00:47:50.498Z,4.47
2023-02-11T00:50:19.546Z,4.15
2023-02-11T00:52:46.350Z,4.10
2023-02-11T00:55:13.171Z,4.20
2023-02-11T00:57:39.961Z,3.97
2023-02-11T01:00:08.032Z,4.07
2023-02-11T01:05:01.810Z,3.67
2023-02-11T01:07:28.930Z,3.97
2023-02-11T01:09:56.055Z,3.90
2023-02-11T01:12:23.285Z,3.75
2023-02-11T01:14:55.780Z,3.60
2023-02-11T01:17:22.677Z,4.25
2023-02-11T01:19:49.497Z,4.07
2023-02-11T01:22:21.103Z,3.80
2023-02-11T01:24:48.008Z,3.58
2023-02-11T01:27:14.987Z,3.90
2023-02-11T01:29:44.395Z,4.00
2023-02-11T01:32:11.225Z,3.60
2023-02-11T01:34:38.075Z,3.90
2023-02-11T01:37:04.874Z,3.33
2023-02-11T01:39:34.024Z,3.65
2023-02-11T01:42:01.032Z,3.58
2023-02-11T01:44:27.871Z,3.63
2023-02-11T01:46:55.568Z,3.90
2023-02-11T01:49:30.524Z,3.47
2023-02-11T01:52:00.175Z,3.38
2023-02-11T01:54:53.538Z,3.70
2023-02-11T01:57:24.905Z,3.40
2023-02-11T02:00:00.249Z,3.50
2023-02-11T02:02:33.746Z,3.85
2023-02-11T02:05:30.795Z,3.75
2023-02-11T02:08:04.412Z,3.55
2023-02-11T02:10:34.104Z,3.40
2023-02-11T02:13:00.957Z,3.90
2023-02-11T02:15:27.792Z,3.58
2023-02-11T02:18:18.274Z,3.53
2023-02-11T02:21:03.634Z,3.60
2023-02-11T02:23:54.596Z,3.55
2023-02-11T02:26:38.008Z,3.40
2023-02-11T02:29:04.746Z,3.05
2023-02-11T02:31:59.536Z,3.60
2023-02-11T02:35:11.775Z,2.97
2023-02-11T02:37:47.709Z,3.10
2023-02-11T02:40:25.737Z,3.17
2023-02-11T02:42:54.014Z,3.15
2023-02-11T02:45:21.056Z,3.03
2023-02-11T02:47:48.008Z,2.95
2023-02-11T02:50:19.644Z,3.60
2023-02-11T02:52:58.644Z,3.13
2023-02-11T02:55:50.037Z,3.10
2023-02-11T02:58:41.343Z,3.15
2023-02-11T03:01:27.021Z,3.10
2023-02-11T03:04:13.628Z,3.17
2023-02-11T03:06:55.194Z,3.03
2023-02-11T03:09:48.133Z,2.90
2023-02-11T03:12:15.699Z,2.95
2023-02-11T03:14:43.187Z,3.13
2023-02-11T03:17:10.664Z,3.22
2023-02-11T03:19:44.350Z,2.80
2023-02-11T03:22:20.444Z,2.70
2023-02-11T03:24:47.748Z,3.20
2023-02-11T03:27:38.674Z,2.97
2023-02-11T03:30:19.867Z,3.10
2023-02-11T03:33:19.858Z,2.95
2023-02-11T03:36:02.608Z,3.17
2023-02-11T03:38:33.919Z,2.80
2023-02-11T03:41:03.525Z,2.80
2023-02-11T03:43:38.640Z,2.88
2023-02-11T03:46:06.271Z,2.60
2023-02-11T03:48:44.214Z,2.78
2023-02-11T03:51:16.640Z,2.85
2023-02-11T03:53:46.488Z,2.90
2023-02-11T03:56:20.067Z,2.72
2023-02-11T03:58:48.327Z,2.70
2023-02-11T04:01:15.481Z,2.60
2023-02-11T04:03:42.558Z,2.63
2023-02-11T04:06:09.351Z,2.63
2023-02-11T04:08:36.175Z,2.70
2023-02-11T04:11:02.996Z,2.58
2023-02-11T04:13:30.234Z,2.55
2023-02-11T04:15:57.124Z,3.17
2023-02-11T04:18:24.041Z,2.50
2023-02-11T04:20:53.319Z,2.70
2023-02-11T04:23:20.112Z,2.67
2023-02-11T04:25:46.912Z,2.53
2023-02-11T04:28:13.759Z,2.50
2023-02-11T04:30:40.676Z,2.42
2023-02-11T04:33:07.516Z,2.92
2023-02-11T04:35:34.301Z,2.70
2023-02-11T04:38:01.091Z,2.88
2023-02-11T04:40:27.883Z,2.70
2023-02-11T04:42:54.781Z,2.88
2023-02-11T04:45:24.341Z,2.70
2023-02-11T04:47:51.237Z,2.60
2023-02-11T04:50:20.792Z,2.63
2023-02-11T04:52:47.645Z,2.70
2023-02-11T04:55:14.461Z,2.60
2023-02-11T04:57:41.267Z,2.63
2023-02-11T05:00:10.004Z,2.55
2023-02-11T05:02:39.334Z,2.50
2023-02-11T05:05:06.576Z,2.47
2023-02-11T05:07:33.440Z,2.40
2023-02-11T05:10:02.449Z,2.40
2023-02-11T05:12:29.217Z,2.58
2023-02-11T05:14:58.228Z,2.90
2023-02-11T05:17:25.000Z,2.55
2023-02-11T05:19:51.803Z,2.35
2023-02-11T05:22:22.018Z,2.63
2023-02-11T05:24:48.908Z,2.83
2023-02-11T05:27:15.745Z,2.58
2023-02-11T05:29:42.605Z,2.05
2023-02-11T05:32:09.443Z,2.70
2023-02-11T05:34:36.887Z,2.33
2023-02-11T05:37:03.685Z,2.28
2023-02-11T05:39:33.025Z,2.53
2023-02-11T05:41:59.791Z,2.20
2023-02-11T05:44:26.629Z,2.47
2023-02-11T05:46:53.443Z,2.40
2023-02-11T05:49:22.785Z,2.45
2023-02-11T05:51:49.750Z,2.60
2023-02-11T05:54:16.901Z,2.30
2023-02-11T05:56:44.911Z,2.65
2023-02-11T06:01:40.335Z,2.63
2023-02-11T06:04:07.123Z,2.67
2023-02-11T06:06:33.972Z,2.40
2023-02-11T06:09:00.760Z,2.47
2023-02-11T06:11:27.602Z,2.40
2023-02-11T06:13:54.469Z,2.35
2023-02-11T06:16:23.462Z,2.53
2023-02-11T06:18:52.896Z,2.70
2023-02-11T06:21:19.729Z,2.42
2023-02-11T06:23:46.703Z,2.42
2023-02-11T06:26:21.652Z,2.85
2023-02-11T06:28:48.759Z,2.20
2023-02-11T06:31:16.294Z,2.28
2023-02-11T06:33:43.564Z,2.40
2023-02-11T06:36:21.158Z,2.33
2023-02-11T06:38:51.055Z,2.05
2023-02-11T06:41:22.082Z,2.55
2023-02-11T06:43:49.431Z,2.25
2023-02-11T06:46:16.418Z,2.63
2023-02-11T06:48:44.857Z,2.33
2023-02-11T06:51:13.433Z,2.28
2023-02-11T06:53:43.810Z,2.53
2023-02-11T06:56:13.776Z,2.50
2023-02-11T06:58:41.027Z,2.42
2023-02-11T07:01:12.818Z,2.80
2023-02-11T07:03:41.512Z,2.70
2023-02-11T07:06:09.079Z,2.50
2023-02-11T07:08:40.492Z,2.50
2023-02-11T07:11:19.342Z,2.30
2023-02-11T07:13:47.330Z,2.72
2023-02-11T07:16:16.428Z,2.60
2023-02-11T07:18:43.873Z,2.35
2023-02-11T07:21:13.523Z,2.35
2023-02-11T07:23:41.281Z,2.22
2023-02-11T07:26:11.660Z,2.67
2023-02-11T07:28:39.771Z,2.50
2023-02-11T07:33:36.340Z,2.50
2023-02-11T07:36:09.858Z,2.60
2023-02-11T07:38:37.249Z,3.55
2023-02-11T07:41:09.805Z,4.75
2023-02-11T07:43:37.598Z,4.70
2023-02-11T07:46:11.302Z,4.30
2023-02-11T07:48:38.535Z,4.55
2023-02-11T07:51:17.199Z,4.07
2023-02-11T07:53:44.484Z,4.25
2023-02-11T07:56:12.536Z,4.18
2023-02-11T08:01:09.316Z,3.90
2023-02-11T08:03:37.055Z,4.10
2023-02-11T08:06:11.791Z,3.88
2023-02-11T08:08:38.780Z,4.03
2023-02-11T08:11:13.792Z,3.88
2023-02-11T08:13:40.976Z,5.95
2023-02-11T08:16:08.532Z,3.90
2023-02-11T08:18:35.963Z,3.80
2023-02-11T08:21:10.092Z,3.83
2023-02-11T08:23:38.757Z,4.07
2023-02-11T08:26:07.709Z,3.60
2023-02-11T08:28:42.600Z,3.88
2023-02-11T08:31:30.296Z,3.65
2023-02-11T08:36:29.438Z,4.10
2023-02-11T08:39:12.185Z,7.70
2023-02-11T08:41:43.723Z,6.63
2023-02-11T08:44:10.929Z,8.27
2023-02-11T08:46:37.859Z,9.00
2023-02-11T08:49:05.076Z,10.27
2023-02-11T08:51:32.314Z,9.63
2023-02-11T08:53:59.863Z,9.30
2023-02-11T08:56:31.468Z,10.27
2023-02-11T08:59:00.542Z,10.48
2023-02-11T09:01:30.352Z,9.10
2023-02-11T09:03:58.081Z,9.65
2023-02-11T09:06:28.191Z,10.95
2023-02-11T09:08:57.260Z,10.30
2023-02-11T09:11:31.171Z,9.13
2023-02-11T09:13:58.535Z,8.85
2023-02-11T09:16:28.763Z,11.05
2023-02-11T09:19:00.353Z,10.25
2023-02-11T09:21:28.678Z,9.73
2023-02-11T09:23:56.036Z,9.18
2023-02-11T09:26:25.537Z,7.95
2023-02-11T09:28:52.913Z,7.70
2023-02-11T09:31:22.198Z,7.45
2023-02-11T09:33:51.189Z,7.13
2023-02-11T09:36:24.759Z,7.20
2023-02-11T09:38:52.805Z,6.70
2023-02-11T09:43:56.277Z,6.80
2023-02-11T09:46:24.585Z,6.40
2023-02-11T09:48:54.744Z,6.72
2023-02-11T09:51:50.057Z,6.55
2023-02-11T09:54:35.303Z,6.85
2023-02-11T09:57:02.329Z,6.30
2023-02-11T09:59:29.181Z,6.75
2023-02-11T10:02:12.051Z,6.22
2023-02-11T10:04:50.848Z,7.47
2023-02-11T10:07:35.711Z,7.60
2023-02-11T10:10:33.947Z,6.75
2023-02-11T10:13:06.384Z,6.85
2023-02-11T10:15:43.012Z,7.13
2023-02-11T10:18:24.567Z,9.15
2023-02-11T10:21:13.704Z,11.18
2023-02-11T10:23:45.101Z,10.93
2023-02-11T10:26:14.970Z,9.57
2023-02-11T10:28:48.335Z,10.50
2023-02-11T10:31:24.765Z,11.10
2023-02-11T10:33:58.456Z,11.00
2023-02-11T10:36:29.871Z,10.07
2023-02-11T10:39:16.501Z,9.23
2023-02-11T10:41:59.613Z,9.35
2023-02-11T10:44:33.483Z,7.45
2023-02-11T10:47:22.840Z,9.48
2023-02-11T10:49:50.412Z,8.60
2023-02-11T10:52:24.809Z,8.90
2023-02-11T10:55:22.028Z,8.25
2023-02-11T10:57:59.107Z,7.68
2023-02-11T11:00:42.252Z,8.07
2023-02-11T11:03:20.374Z,10.25
2023-02-11T11:05:58.714Z,24.55
2023-02-11T11:08:47.276Z,45.15
2023-02-11T11:11:22.066Z,38.30
2023-02-11T11:13:58.264Z,33.38
2023-02-11T11:16:32.625Z,24.73
2023-02-11T11:19:08.438Z,21.95
2023-02-11T11:21:43.552Z,18.35
2023-02-11T11:24:21.302Z,17.10
2023-02-11T11:26:54.190Z,15.47
2023-02-11T11:29:26.869Z,14.07
2023-02-11T11:32:00.860Z,13.30
2023-02-11T11:34:33.929Z,12.32
2023-02-11T11:37:10.225Z,13.38
2023-02-11T11:39:37.242Z,12.00
2023-02-11T11:42:22.019Z,11.40
2023-02-11T11:44:58.453Z,12.05
2023-02-11T11:47:52.416Z,12.13
2023-02-11T11:50:41.852Z,11.57
2023-02-11T11:53:21.732Z,12.63
2023-02-11T11:56:18.516Z,10.98
2023-02-11T11:58:45.579Z,10.93
2023-02-11T12:01:35.686Z,10.93
2023-02-11T12:04:05.529Z,10.50
2023-02-11T12:06:41.185Z,10.98
2023-02-11T12:09:45.919Z,11.82
2023-02-11T12:12:46.977Z,14.85
2023-02-11T12:15:47.623Z,15.32
2023-02-11T12:19:05.126Z,16.65
2023-02-11T12:21:50.667Z,16.27
2023-02-11T12:24:42.135Z,18.00
2023-02-11T12:27:19.992Z,16.00
2023-02-11T12:32:40.244Z,14.75
2023-02-11T12:35:19.049Z,13.75
2023-02-11T12:37:58.291Z,12.85
2023-02-11T12:40:25.115Z,11.45
2023-02-11T12:43:17.861Z,11.43
2023-02-11T12:45:49.615Z,11.38
2023-02-11T12:48:37.873Z,10.77
2023-02-11T12:51:16.936Z,11.10
2023-02-11T12:54:19.563Z,10.20
2023-02-11T12:56:52.437Z,9.90
2023-02-11T12:59:41.154Z,9.48
2023-02-11T13:02:30.552Z,9.55
2023-02-11T13:05:02.366Z,9.55
2023-02-11T13:07:35.612Z,9.05
2023-02-11T13:10:16.812Z,8.93
2023-02-11T13:13:06.002Z,8.98
2023-02-11T13:15:33.429Z,8.68
2023-02-11T13:18:10.227Z,8.80
2023-02-11T13:21:15.328Z,8.40
2023-02-11T13:23:47.915Z,8.63
2023-02-11T13:26:31.341Z,8.60
2023-02-11T13:29:17.289Z,8.10
2023-02-11T13:31:56.184Z,7.75
2023-02-11T13:34:47.127Z,8.00
2023-02-11T13:37:38.535Z,8.27
2023-02-11T13:40:21.426Z,7.72
2023-02-11T13:43:05.734Z,8.30
2023-02-11T13:45:44.680Z,7.70
2023-02-11T13:48:32.059Z,8.13
2023-02-11T13:51:13.034Z,7.45
2023-02-11T13:53:49.192Z,7.70
2023-02-11T13:56:34.227Z,7.60
2023-02-11T13:59:32.892Z,7.97
2023-02-11T14:02:18.141Z,7.53
2023-02-11T14:05:23.978Z,7.50
2023-02-11T14:08:28.619Z,7.35
2023-02-11T14:10:55.471Z,7.47
2023-02-11T14:13:29.597Z,7.40
2023-02-11T14:16:09.172Z,7.40
2023-02-11T14:18:44.721Z,7.80
2023-02-11T14:21:23.826Z,7.70
2023-02-11T14:23:56.056Z,7.47
2023-02-11T14:26:30.691Z,7.25
2023-02-11T14:29:14.106Z,7.22
2023-02-11T14:31:59.243Z,7.78
2023-02-11T14:34:52.124Z,7.53
2023-02-11T14:37:37.142Z,7.70
2023-02-11T14:40:09.946Z,7.18
2023-02-11T14:42:38.369Z,7.75
2023-02-11T14:45:10.914Z,7.25
2023-02-11T14:47:52.701Z,7.72
2023-02-11T14:50:59.332Z,7.63
2023-02-11T14:53:30.654Z,7.70
2023-02-11T14:55:59.995Z,7.88
2023-02-11T14:58:32.082Z,7.57
2023-02-11T15:01:01.775Z,7.20
2023-02-11T15:03:43.077Z,7.97
2023-02-11T15:06:23.235Z,7.50
2023-02-11T15:08:52.100Z,7.32
2023-02-11T15:11:22.059Z,7.50
2023-02-11T15:13:53.072Z,8.40
2023-02-11T15:16:24.928Z,9.65
2023-02-11T15:18:58.489Z,9.32
2023-02-11T15:21:30.816Z,9.20
2023-02-11T15:24:20.920Z,8.95
2023-02-11T15:27:03.200Z,8.88
2023-02-11T15:29:43.737Z,8.48
2023-02-11T15:32:18.062Z,8.20
2023-02-11T15:34:46.943Z,8.40
2023-02-11T15:37:25.105Z,8.57
2023-02-11T15:39:53.723Z,9.27
2023-02-11T15:42:25.047Z,11.68
2023-02-11T15:45:25.115Z,10.70
2023-02-11T15:47:54.422Z,10.35
2023-02-11T15:50:31.007Z,9.68
2023-02-11T15:53:01.162Z,9.43
2023-02-11T15:55:29.240Z,9.15
2023-02-11T15:58:01.725Z,8.50
2023-02-11T16:00:46.337Z,8.38
2023-02-11T16:03:32.406Z,8.50
2023-02-11T16:06:18.905Z,9.10
2023-02-11T16:09:05.539Z,8.75
2023-02-11T16:11:35.698Z,8.88
2023-02-11T16:14:19.486Z,9.27
2023-02-11T16:16:50.263Z,8.73
2023-02-11T16:19:24.166Z,9.50
2023-02-11T16:21:53.522Z,8.68
2023-02-11T16:24:25.449Z,8.88
2023-02-11T16:26:55.608Z,8.82
2023-02-11T16:29:35.271Z,8.45
2023-02-11T16:32:15.686Z,8.43
2023-02-11T16:34:42.504Z,7.78
2023-02-11T16:37:09.543Z,8.50
2023-02-11T16:39:36.674Z,7.88
2023-02-11T16:42:06.433Z,8.23
2023-02-11T16:44:34.948Z,7.88
2023-02-11T16:47:03.440Z,7.97
2023-02-11T16:49:38.251Z,8.38
2023-02-11T16:52:12.791Z,8.05
2023-02-11T16:54:42.218Z,8.13
2023-02-11T16:57:17.875Z,8.20
2023-02-11T16:59:45.254Z,8.30
2023-02-11T17:02:27.619Z,7.65
2023-02-11T17:04:56.039Z,8.05
2023-02-11T17:07:23.129Z,8.05
2023-02-11T17:09:50.194Z,8.10
2023-02-11T17:12:17.012Z,7.93
2023-02-11T17:14:43.955Z,8.60
2023-02-11T17:17:11.710Z,7.97
2023-02-11T17:19:38.847Z,8.25
2023-02-11T17:22:06.505Z,8.33
2023-02-11T17:24:33.293Z,7.40
2023-02-11T17:27:00.117Z,7.78
2023-02-11T17:29:29.585Z,7.88
2023-02-11T17:31:57.102Z,7.93
2023-02-11T17:34:29.219Z,7.57
2023-02-11T17:36:57.896Z,7.75
2023-02-11T17:39:24.777Z,7.35
2023-02-11T17:41:51.644Z,8.00
2023-02-11T17:44:18.527Z,7.95
2023-02-11T17:46:45.355Z,7.20
2023-02-11T17:49:12.517Z,7.63
2023-02-11T17:51:40.069Z,7.57
2023-02-11T17:54:13.498Z,7.82
2023-02-11T17:56:41.048Z,7.88
2023-02-11T17:59:09.497Z,7.70
2023-02-11T18:01:38.372Z,7.72
2023-02-11T18:04:06.416Z,7.70
2023-02-11T18:09:04.443Z,7.28
2023-02-11T18:11:33.541Z,7.68
2023-02-11T18:14:02.170Z,7.03
2023-02-11T18:16:30.477Z,7.80
2023-02-11T18:18:58.898Z,6.90
2023-02-11T18:21:25.710Z,7.07
2023-02-11T18:23:54.747Z,7.50
2023-02-11T18:26:22.262Z,7.72
2023-02-11T18:28:49.155Z,7.88
2023-02-11T18:31:16.102Z,7.47
2023-02-11T18:33:43.978Z,7.10
2023-02-11T18:36:14.854Z,7.07
2023-02-11T18:38:44.251Z,6.88
2023-02-11T18:41:12.101Z,7.70
2023-02-11T18:43:40.037Z,6.65
2023-02-11T18:46:12.756Z,7.15
2023-02-11T18:48:40.247Z,6.97
2023-02-11T18:51:14.771Z,7.53
2023-02-11T18:53:42.584Z,7.13
2023-02-11T18:56:20.870Z,7.32
2023-02-11T18:58:47.983Z,6.75
2023-02-11T19:01:27.321Z,7.03
2023-02-11T19:03:56.444Z,7.15
2023-02-11T19:06:28.498Z,7.75
2023-02-11T19:08:59.748Z,7.20
2023-02-11T19:11:47.100Z,7.38
2023-02-11T19:14:16.528Z,6.97
2023-02-11T19:16:44.647Z,7.07
2023-02-11T19:19:11.606Z,7.68
2023-02-11T19:21:38.484Z,7.38
2023-02-11T19:24:09.260Z,7.07
2023-02-11T19:26:36.798Z,7.00
2023-02-11T19:29:05.880Z,7.40
2023-02-11T19:31:33.018Z,7.30
2023-02-11T19:34:00.763Z,7.70
2023-02-11T19:36:27.799Z,7.55
2023-02-11T19:38:55.123Z,7.15
2023-02-11T19:41:24.847Z,7.55
2023-02-11T19:43:53.035Z,8.00
2023-02-11T19:46:21.182Z,7.63
2023-02-11T19:48:49.073Z,7.53
2023-02-11T19:51:16.652Z,7.25
2023-02-11T19:53:44.376Z,7.43
2023-02-11T19:56:12.771Z,7.80
2023-02-11T19:58:43.029Z,7.38
2023-02-11T20:01:27.879Z,7.22
2023-02-11T20:03:57.288Z,7.63
2023-02-11T20:06:28.359Z,7.43
2023-02-11T20:08:58.766Z,7.22
2023-02-11T20:11:29.452Z,6.88
2023-02-11T20:13:56.927Z,6.90
2023-02-11T20:16:40.724Z,7.10
2023-02-11T20:19:08.002Z,6.85
2023-02-11T20:21:34.834Z,7.35
2023-02-11T20:24:01.630Z,6.75
2023-02-11T20:26:34.851Z,7.28
2023-02-11T20:29:02.596Z,7.22
2023-02-11T20:31:32.227Z,7.07
2023-02-11T20:34:00.332Z,7.00
2023-02-11T20:39:06.416Z,7.00
2023-02-11T20:41:35.270Z,6.57
2023-02-11T20:44:09.981Z,6.22
2023-02-11T20:46:40.072Z,7.05
2023-02-11T20:49:08.667Z,7.22
2023-02-11T20:51:36.644Z,7.35
2023-02-11T20:54:03.665Z,7.45
2023-02-11T20:56:33.035Z,7.25
2023-02-11T20:59:02.096Z,6.72
2023-02-11T21:01:42.824Z,6.93
2023-02-11T21:04:18.894Z,7.45
2023-02-11T21:06:49.840Z,7.03
2023-02-11T21:09:22.274Z,7.03
2023-02-11T21:11:51.626Z,6.60
2023-02-11T21:14:19.607Z,6.63
2023-02-11T21:19:14.669Z,6.93
2023-02-11T21:21:44.332Z,7.15
2023-02-11T21:24:11.848Z,7.10
2023-02-11T21:26:38.797Z,6.25
2023-02-11T21:29:07.292Z,7.32
2023-02-11T21:31:35.511Z,6.57
2023-02-11T21:34:02.875Z,6.95
2023-02-11T21:36:30.800Z,6.67
2023-02-11T21:41:25.026Z,7.07
2023-02-11T21:43:52.285Z,7.10
2023-02-11T21:46:20.455Z,6.87
2023-02-11T21:48:50.149Z,7.13
2023-02-11T21:51:23.216Z,6.80
2023-02-11T21:54:01.161Z,6.75
2023-02-11T21:56:31.866Z,6.68
2023-02-11T21:58:59.609Z,6.88
2023-02-11T22:01:28.945Z,7.38
2023-02-11T22:03:56.208Z,7.20
2023-02-11T22:06:30.934Z,6.73
2023-02-11T22:08:58.648Z,7.05
2023-02-11T22:11:25.493Z,6.60
2023-02-11T22:13:56.291Z,6.60
2023-02-11T22:16:23.689Z,6.35
2023-02-11T22:18:51.453Z,7.03
2023-02-11T22:21:21.492Z,6.70
2023-02-11T22:23:48.908Z,6.97
2023-02-11T22:26:22.305Z,6.88
2023-02-11T22:28:49.968Z,6.80
2023-02-11T22:31:23.139Z,7.43
2023-02-11T22:33:50.795Z,6.97
2023-02-11T22:36:23.831Z,6.68
2023-02-11T22:38:51.142Z,6.75
2023-02-11T22:41:18.418Z,7.20
2023-02-11T22:43:47.971Z,7.00
2023-02-11T22:46:19.572Z,6.63
2023-02-11T22:48:47.684Z,7.25
2023-02-11T22:53:48.500Z,6.55
2023-02-11T22:56:15.975Z,7.60
2023-02-11T22:58:42.882Z,6.38
2023-02-11T23:01:10.077Z,6.93
2023-02-11T23:03:37.042Z,7.35
2023-02-11T23:06:04.459Z,6.88
2023-02-11T23:08:34.223Z,6.32
2023-02-11T23:11:09.837Z,7.03
2023-02-11T23:13:39.525Z,6.93
2023-02-11T23:16:09.024Z,7.18
2023-02-11T23:18:37.470Z,6.82
2023-02-11T23:21:12.475Z,6.90
2023-02-11T23:23:39.991Z,7.30
2023-02-11T23:26:10.709Z,6.53
2023-02-11T23:28:38.227Z,7.10
2023-02-11T23:31:25.391Z,6.90
2023-02-11T23:33:52.882Z,7.70
2023-02-11T23:36:21.573Z,6.32
2023-02-11T23:38:48.713Z,6.75
2023-02-11T23:41:16.491Z,6.77
2023-02-11T23:43:44.056Z,6.60
2023-02-11T23:46:11.582Z,6.40
2023-02-11T23:48:40.487Z,6.63
2023-02-11T23:51:10.297Z,6.50
2023-02-11T23:53:38.458Z,6.30
2023-02-11T23:56:10.900Z,6.53
2023-02-11T23:58:37.830Z,6.43
